Latest Weather Observations for Longerenong

IDV60801

Issued at 10:02 pm EST Friday 29 April 2016 (issued every 30 minutes, with the page automatically refreshed every 10 minutes)

About weather observations | Map of weather stations | Latest weather observations for VIC | Other Formats
Station Details ID: 079028 Name: LONGERENONG Lat: -36.67 Lon: 142.30 Height: 133.0 m
Data from the previous 72 hours. | See also: Recent months at Longerenong
Date/Time
EST
Temp
°C
App
Temp
°C
Dew
Point
Rel
Hum
%
Delta-T
°C
Wind Press
QNH
hPa
Press
MSL
hPa
Rain
since 9 am
mm
Dir
 
Spd
km/h
Gust
km/h
Spd
kts
Gust
kts
29/10:00pm 14.4 12.9 13.0 91 0.8 NNE 13 19 7 10 - - 3.2
29/09:30pm 14.6 13.4 12.8 89 1.0 N 11 19 6 10 - - 3.2
29/09:00pm 14.8 13.2 12.8 88 1.1 NNE 13 19 7 10 - - 3.2
29/08:30pm 14.9 13.3 12.9 88 1.1 NNE 13 17 7 9 - - 3.2
29/08:00pm 15.1 14.4 13.1 88 1.1 NNE 9 15 5 8 - - 3.2
29/07:30pm 15.3 14.2 13.2 87 1.2 NNE 11 17 6 9 - - 3.2
29/07:00pm 15.8 14.8 13.3 85 1.4 NNE 11 17 6 9 - - 3.2
29/06:30pm 16.0 15.4 13.5 85 1.4 N 9 15 5 8 - - 3.2
29/06:00pm 16.9 16.0 13.8 82 1.8 N 11 15 6 8 - - 3.2
29/05:30pm 17.6 16.8 14.1 80 2.0 N 11 17 6 9 - - 3.2
29/05:00pm 18.0 16.6 14.5 80 2.0 N 15 20 8 11 - - 3.2
29/04:30pm 17.8 16.3 14.1 79 2.1 N 15 24 8 13 - - 3.2
29/04:00pm 17.8 16.3 14.1 79 2.1 N 15 24 8 13 - - 3.2
29/03:30pm 17.6 15.3 14.1 80 2.0 N 19 30 10 16 - - 3.2
29/03:00pm 17.6 15.8 14.5 82 1.8 N 17 26 9 14 - - 3.2
29/02:30pm 17.3 15.6 14.8 85 1.5 NNE 17 28 9 15 - - 3.2
29/02:00pm 17.1 15.1 14.9 87 1.3 N 19 28 10 15 - - 3.2
29/01:30pm 16.9 15.7 15.1 89 1.0 N 15 24 8 13 - - 3.2
29/01:00pm 16.0 13.8 14.5 91 0.9 N 19 28 10 15 - - 3.0
29/12:30pm 16.3 15.0 14.8 91 0.9 N 15 19 8 10 - - 2.4
29/12:00pm 16.5 15.2 14.7 89 1.0 NNW 15 20 8 11 - - 1.6
29/11:30am 16.7 16.6 14.9 89 1.0 N 9 13 5 7 - - 1.2
29/11:00am 16.1 16.2 14.5 90 0.9 N 7 11 4 6 - - 1.0
29/10:30am 15.8 15.8 14.3 91 0.9 NNE 7 9 4 5 - - 0.8
29/10:00am 15.7 15.7 14.1 90 0.9 N 7 11 4 6 - - 0.4
29/09:30am 15.9 15.0 13.6 86 1.3 NNW 11 15 6 8 - - 0.0
29/09:00am 16.3 15.2 13.0 81 1.8 NW 11 19 6 10 - - 0.8
29/08:30am 16.3 13.8 12.3 77 2.2 W 17 20 9 11 - - 0.8
29/08:00am 14.8 14.3 12.1 84 1.5 NW 6 17 3 9 - - 0.8
29/07:30am 14.1 14.6 11.6 85 1.3 CALM 0 0 0 0 - - 0.8
29/07:00am 14.8 14.8 11.2 79 1.9 NNE 2 6 1 3 - - 0.8
29/06:30am 14.9 14.9 11.3 79 1.9 SSW 2 2 1 1 - - 0.8
29/06:00am 15.3 13.6 11.1 76 2.3 SW 11 13 6 7 - - 0.8
29/05:30am 16.5 14.2 10.4 67 3.3 W 13 20 7 11 - - 0.8
29/05:00am 16.3 14.7 10.2 67 3.2 N 9 13 5 7 - - 0.6
29/04:30am 16.3 14.9 9.7 65 3.5 ENE 7 11 4 6 - - 0.2
29/04:00am 15.8 14.0 10.8 72 2.7 ESE 11 11 6 6 - - 0.2
29/03:30am 15.3 14.6 11.3 77 2.2 S 6 9 3 5 - - 0.2
29/03:00am 15.4 14.5 11.4 77 2.2 SSW 7 9 4 5 - - 0.2
29/02:30am 15.1 14.3 10.9 76 2.2 ESE 6 6 3 3 - - 0.2
29/02:00am 16.4 14.8 10.3 67 3.2 ENE 9 13 5 7 - - 0.2
29/01:30am 16.0 14.9 10.5 70 2.9 ENE 7 11 4 6 - - 0.2
29/01:00am 16.1 14.6 10.6 70 2.9 ENE 9 13 5 7 - - 0.2
29/12:30am 16.0 14.7 11.2 73 2.6 ENE 9 13 5 7 - - 0.2
29/12:00am 15.9 15.0 11.3 74 2.5 E 7 9 4 5 - - 0.2
 
Date/Time
EST
Temp
°C
App
Temp
°C
Dew
Point
Rel
Hum
%
Delta-T
°C
Wind Press
QNH
hPa
Press
MSL
hPa
Rain
since 9 am
mm
Dir
 
Spd
km/h
Gust
km/h
Spd
kts
Gust
kts
28/11:30pm 16.0 14.5 12.0 77 2.2 E 11 13 6 7 - - 0.2
28/11:00pm 16.6 15.9 12.0 74 2.5 E 7 11 4 6 - - 0.2
28/10:30pm 16.9 16.2 12.0 73 2.7 NE 7 11 4 6 - - 0.2
28/10:00pm 16.1 15.6 12.5 79 2.0 ENE 7 9 4 5 - - 0.2
28/09:30pm 16.8 16.0 12.9 78 2.2 E 9 11 5 6 - - 0.2
28/09:00pm 16.4 16.0 13.1 81 1.9 E 7 9 4 5 - - 0.2
28/08:30pm 16.9 16.6 13.4 80 2.0 E 7 13 4 7 - - 0.2
28/08:00pm 17.3 16.7 13.4 78 2.2 ESE 9 9 5 5 - - 0.2
28/07:30pm 17.9 17.6 13.2 74 2.7 E 7 9 4 5 - - 0.2
28/07:00pm 17.9 17.6 13.4 75 2.6 E 7 11 4 6 - - 0.2
28/06:30pm 18.4 18.5 13.9 75 2.6 ENE 6 7 3 4 - - 0.2
28/06:00pm 18.0 19.3 14.1 78 2.2 CALM 0 0 0 0 - - 0.2
28/05:30pm 19.1 18.9 13.7 71 3.1 E 7 11 4 6 - - 0.2
28/05:00pm 19.3 19.3 13.7 70 3.2 ENE 6 9 3 5 - - 0.2
28/04:30pm 19.7 19.7 13.6 68 3.5 SSE 6 6 3 3 - - 0.2
28/04:00pm 20.0 21.0 13.2 65 3.9 CALM 0 0 0 0 - - 0.2
28/03:30pm 20.1 20.1 13.6 66 3.7 SSW 6 7 3 4 - - 0.2
28/03:00pm 19.9 19.7 13.1 65 3.9 W 6 9 3 5 - - 0.2
28/02:30pm 20.2 20.4 12.9 63 4.2 W 4 6 2 3 - - 0.2
28/02:00pm 20.3 19.9 12.5 61 4.4 NW 6 9 3 5 - - 0.2
28/01:30pm 19.9 19.9 12.4 62 4.2 NW 4 6 2 3 - - 0.2
28/01:00pm 19.1 18.5 12.4 65 3.8 NE 7 11 4 6 - - 0.2
28/12:30pm 17.8 17.5 12.7 72 2.9 NE 6 9 3 5 - - 0.2
28/12:00pm 17.2 16.8 12.9 76 2.4 ENE 7 13 4 7 - - 0.2
28/11:30am 16.8 16.1 13.3 80 2.0 NE 9 13 5 7 - - 0.2
28/11:00am 16.6 16.4 12.9 79 2.1 N 6 7 3 4 - - 0.0
28/10:30am 16.3 16.8 12.8 80 2.0 NNW 2 4 1 2 - - 0.0
28/10:00am 16.2 15.3 12.7 80 1.9 NNW 9 13 5 7 - - 0.0
28/09:30am 16.1 15.0 12.1 77 2.2 N 9 13 5 7 - - 0.0
28/09:00am 15.9 15.4 11.9 77 2.2 N 6 7 3 4 - - 0.4
28/08:30am 15.5 14.4 10.7 73 2.6 N 7 13 4 7 - - 0.2
28/08:00am 15.9 14.8 10.0 68 3.1 N 6 9 3 5 - - 0.2
28/07:30am 15.2 14.7 10.8 75 2.3 NNE 4 9 2 5 - - 0.2
28/07:00am 15.1 15.1 11.3 78 2.0 NNW 2 7 1 4 - - 0.2
28/06:30am 15.6 13.9 9.7 68 3.1 N 9 11 5 6 - - 0.0
28/06:00am 16.9 14.8 8.1 56 4.5 N 9 13 5 7 - - 0.0
28/05:30am 18.7 15.4 4.5 39 6.8 NW 11 17 6 9 - - 0.0
28/05:00am 19.2 14.8 4.6 38 7.1 NNW 17 20 9 11 - - 0.0
28/04:30am 19.4 14.6 4.4 37 7.2 NNW 19 28 10 15 - - 0.0
28/04:00am 19.7 14.2 4.2 36 7.5 N 22 28 12 15 - - 0.0
28/03:30am 19.7 14.8 4.2 36 7.5 N 19 24 10 13 - - 0.0
28/03:00am 20.0 15.5 4.1 35 7.7 N 17 22 9 12 - - 0.0
28/02:30am 20.2 15.3 4.3 35 7.7 N 19 24 10 13 - - 0.0
28/02:00am 20.6 15.5 4.2 34 8.0 N 20 28 11 15 - - 0.0
28/01:30am 20.9 15.4 4.0 33 8.2 N 22 32 12 17 - - 0.0
28/01:00am 20.9 15.8 4.0 33 8.2 N 20 32 11 17 - - 0.0
28/12:30am 20.8 15.8 4.4 34 8.0 N 20 28 11 15 - - 0.0
28/12:00am 20.0 15.5 4.1 35 7.7 N 17 24 9 13 - - 0.0
 
Date/Time
EST
Temp
°C
App
Temp
°C
Dew
Point
Rel
Hum
%
Delta-T
°C
Wind Press
QNH
hPa
Press
MSL
hPa
Rain
since 9 am
mm
Dir
 
Spd
km/h
Gust
km/h
Spd
kts
Gust
kts
27/11:30pm 19.8 15.3 4.3 36 7.5 N 17 24 9 13 - - 0.0
27/11:00pm 20.0 15.6 4.5 36 7.5 N 17 24 9 13 - - 0.0
27/10:30pm 20.0 15.9 4.5 36 7.5 NNE 15 22 8 12 - - 0.0
27/10:00pm 20.3 15.9 4.8 36 7.6 NNE 17 24 9 13 - - 0.0
27/09:30pm 20.4 16.0 4.8 36 7.6 NNE 17 24 9 13 - - 0.0
27/09:00pm 20.9 16.9 4.9 35 7.9 NNE 15 24 8 13 - - 0.0
27/08:30pm 21.3 17.3 4.8 34 8.1 NNE 15 24 8 13 - - 0.0
27/08:00pm 21.1 17.5 5.1 35 7.9 NNE 13 19 7 10 - - 0.0
27/07:30pm 21.9 17.9 4.9 33 8.4 NNE 15 20 8 11 - - 0.0
27/07:00pm 22.1 18.1 4.7 32 8.6 N 15 22 8 12 - - 0.0
27/06:30pm 22.3 18.3 4.8 32 8.7 N 15 20 8 11 - - 0.0
27/06:00pm 23.2 19.1 4.2 29 9.4 N 15 20 8 11 - - 0.0
27/05:30pm 25.4 19.7 5.1 27 10.3 N 24 32 13 17 - - 0.0
27/05:00pm 26.2 19.0 5.2 26 10.8 N 32 43 17 23 - - 0.0
27/04:30pm 26.7 19.6 5.6 26 10.9 N 32 43 17 23 - - 0.0
27/04:00pm 26.9 20.5 5.2 25 11.2 NNW 28 37 15 20 - - 0.0
27/03:30pm 26.8 19.7 5.7 26 11.0 N 32 43 17 23 - - 0.0
27/03:00pm 27.0 18.9 5.3 25 11.2 NNW 37 52 20 28 - - 0.0
27/02:30pm 27.4 19.4 5.6 25 11.3 N 37 52 20 28 - - 0.0
27/02:00pm 26.8 18.4 5.7 26 11.0 N 39 48 21 26 - - 0.0
27/01:30pm 27.3 18.9 5.6 25 11.3 NNW 39 52 21 28 - - 0.0
27/01:00pm 26.9 18.0 5.2 25 11.2 N 41 54 22 29 - - 0.0
27/12:30pm 28.1 19.3 5.6 24 11.8 NNW 41 54 22 29 - - 0.0
27/12:19pm 28.4 19.8 6.5 25 11.6 N 41 59 22 32 - - 0.0
27/12:00pm 27.6 18.6 6.4 26 11.2 N 43 56 23 30 - - 0.0
27/11:30am 26.1 17.9 6.7 29 10.2 N 39 50 21 27 - - 0.0
27/11:00am 25.2 17.8 6.9 31 9.6 N 35 44 19 24 - - 0.0
27/10:30am 24.3 16.5 6.6 32 9.2 N 37 52 20 28 - - 0.0
27/10:00am 22.6 15.8 6.8 36 8.2 N 32 46 17 25 - - 0.0
27/09:30am 20.6 14.5 6.5 40 7.2 N 28 39 15 21 - - 0.0
27/09:00am 18.8 14.2 6.3 44 6.2 N 20 33 11 18 - - 0.0
27/08:30am 16.9 12.3 5.5 47 5.5 N 19 30 10 16 - - 0.0
27/08:00am 15.5 11.5 5.1 50 4.9 NNE 15 24 8 13 - - 0.0
27/07:30am 14.0 9.6 4.6 53 4.4 NNE 17 24 9 13 - - 0.0
27/07:00am 13.8 9.3 4.4 53 4.3 NNE 17 24 9 13 - - 0.0
27/06:30am 13.9 9.4 4.2 52 4.5 NNE 17 26 9 14 - - 0.0
27/06:00am 14.5 10.0 4.2 50 4.8 NNE 17 28 9 15 - - 0.0
27/05:30am 14.6 9.7 4.0 49 4.9 NNE 19 28 10 15 - - 0.0
27/05:00am 14.8 10.2 3.9 48 5.0 NNE 17 26 9 14 - - 0.0
27/04:30am 15.4 10.8 3.9 46 5.3 NNE 17 26 9 14 - - 0.0
27/04:00am 15.8 10.9 3.9 45 5.5 NNE 19 24 10 13 - - 0.0
27/03:30am 15.7 10.7 3.8 45 5.5 NNE 19 24 10 13 - - 0.0
27/03:00am 15.6 10.6 3.7 45 5.5 NNE 19 28 10 15 - - 0.0
27/02:30am 15.3 10.7 3.8 46 5.3 NNE 17 24 9 13 - - 0.0
27/02:00am 15.5 10.9 3.6 45 5.5 NNE 17 24 9 13 - - 0.0
27/01:30am 15.1 10.4 3.3 45 5.4 NNE 17 26 9 14 - - 0.0
27/01:00am 14.9 10.5 2.8 44 5.5 NNE 15 20 8 11 - - 0.0
27/12:30am 14.9 10.9 2.8 44 5.5 NE 13 20 7 11 - - 0.0
27/12:00am 15.4 11.7 2.6 42 5.8 NE 11 19 6 10 - - 0.0
 
Date/Time
EST
Temp
°C
App
Temp
°C
Dew
Point
Rel
Hum
%
Delta-T
°C
Wind Press
QNH
hPa
Press
MSL
hPa
Rain
since 9 am
mm
Dir
 
Spd
km/h
Gust
km/h
Spd
kts
Gust
kts
26/11:30pm 16.5 12.1 2.9 40 6.2 NNE 15 20 8 11 - - 0.0
26/11:00pm 16.9 12.8 2.5 38 6.6 NE 13 22 7 12 - - 0.0
26/10:30pm 17.7 13.3 2.8 37 6.9 NNE 15 20 8 11 - - 0.0

Other Formats:

Comma delimited format used in spreadsheet applications
http://www.bom.gov.au/fwo/IDV60801/IDV60801.95835.axf

JavaScript Object Notation format (JSON) in row-major order
http://www.bom.gov.au/fwo/IDV60801/IDV60801.95835.json